< < Back
Terminal Aerodrome Forecast


Current Version              Previous Versions:   1  2  3  4  5  6  7  8  9  

Terminal Aerodrome Forecast

566
FTUS42 KJAX 222300
TAFJAX
TAF
KJAX 222340Z 2300/2324 09010KT P6SM VCSH SCT025 OVC035
     FM230600 13010KT P6SM VCTS SCT012 OVC020CB WS020/15040KT
      TEMPO 2308/2312 3SM RA BR SCT008 OVC015
     FM231600 18014G22KT 6SM -SHRA SCT025 OVC035=



Latest METAR

901
SAUS80 KWBC 231200 RRB
MTRJAX
METAR KJAX 231156Z COR 00000KT 4SM BR SCT005 BKN015 OVC020 20/20 A3001
RMK AO2 RAE55 SLP162 P0007 60108 70108 T02000200 10211 20200
56006 $


USA.gov is the U.S. government's official web portal to all federal, state and local government web resources and services.